sensor_id;sensor_type;location;lat;lon;timestamp;P1;durP1;ratioP1;P2;durP2;ratioP2
67272;SDS011;54190;49.770;9.250;2022-08-30T00:01:08;9.37;;;4.27;;
67272;SDS011;54190;49.770;9.250;2022-08-30T00:03:38;7.13;;;4.50;;
67272;SDS011;54190;49.770;9.250;2022-08-30T00:06:07;7.30;;;4.60;;
67272;SDS011;54190;49.770;9.250;2022-08-30T00:08:37;6.47;;;4.40;;
67272;SDS011;54190;49.770;9.250;2022-08-30T00:11:05;8.47;;;4.80;;
67272;SDS011;54190;49.770;9.250;2022-08-30T00:13:37;7.53;;;5.60;;
67272;SDS011;54190;49.770;9.250;2022-08-30T00:16:03;8.53;;;4.43;;
67272;SDS011;54190;49.770;9.250;2022-08-30T00:18:33;5.80;;;4.53;;
67272;SDS011;54190;49.770;9.250;2022-08-30T00:21:00;8.10;;;4.80;;
67272;SDS011;54190;49.770;9.250;2022-08-30T00:23:27;8.20;;;4.80;;
67272;SDS011;54190;49.770;9.250;2022-08-30T00:25:53;7.77;;;4.40;;
67272;SDS011;54190;49.770;9.250;2022-08-30T00:28:19;8.50;;;4.40;;
67272;SDS011;54190;49.770;9.250;2022-08-30T00:30:45;7.53;;;4.70;;
67272;SDS011;54190;49.770;9.250;2022-08-30T00:33:12;9.07;;;4.70;;
67272;SDS011;54190;49.770;9.250;2022-08-30T00:35:38;7.03;;;5.03;;
67272;SDS011;54190;49.770;9.250;2022-08-30T00:38:09;10.43;;;5.67;;
67272;SDS011;54190;49.770;9.250;2022-08-30T00:40:37;9.13;;;4.70;;
67272;SDS011;54190;49.770;9.250;2022-08-30T00:43:07;10.40;;;5.53;;
67272;SDS011;54190;49.770;9.250;2022-08-30T00:45:38;11.83;;;4.80;;
67272;SDS011;54190;49.770;9.250;2022-08-30T00:48:05;13.53;;;5.13;;
67272;SDS011;54190;49.770;9.250;2022-08-30T00:50:33;11.80;;;5.87;;
67272;SDS011;54190;49.770;9.250;2022-08-30T00:53:03;7.27;;;4.90;;
67272;SDS011;54190;49.770;9.250;2022-08-30T00:55:34;8.13;;;4.60;;
67272;SDS011;54190;49.770;9.250;2022-08-30T00:58:01;8.97;;;5.10;;
67272;SDS011;54190;49.770;9.250;2022-08-30T01:00:28;10.13;;;5.40;;
67272;SDS011;54190;49.770;9.250;2022-08-30T01:02:54;8.10;;;5.27;;
67272;SDS011;54190;49.770;9.250;2022-08-30T01:05:21;6.60;;;4.70;;
67272;SDS011;54190;49.770;9.250;2022-08-30T01:07:48;8.20;;;5.20;;
67272;SDS011;54190;49.770;9.250;2022-08-30T01:10:14;9.50;;;5.00;;
67272;SDS011;54190;49.770;9.250;2022-08-30T01:12:41;7.33;;;4.83;;
67272;SDS011;54190;49.770;9.250;2022-08-30T01:15:09;11.53;;;5.00;;
67272;SDS011;54190;49.770;9.250;2022-08-30T01:17:43;8.87;;;5.17;;
67272;SDS011;54190;49.770;9.250;2022-08-30T01:20:13;7.73;;;4.67;;
67272;SDS011;54190;49.770;9.250;2022-08-30T01:23:03;8.30;;;5.27;;
67272;SDS011;54190;49.770;9.250;2022-08-30T01:25:32;8.07;;;4.83;;
67272;SDS011;54190;49.770;9.250;2022-08-30T01:28:00;9.10;;;5.73;;
67272;SDS011;54190;49.770;9.250;2022-08-30T01:30:30;8.03;;;4.83;;
67272;SDS011;54190;49.770;9.250;2022-08-30T01:32:58;14.70;;;5.60;;
67272;SDS011;54190;49.770;9.250;2022-08-30T01:35:26;7.37;;;4.80;;
67272;SDS011;54190;49.770;9.250;2022-08-30T01:37:53;7.93;;;5.40;;
67272;SDS011;54190;49.770;9.250;2022-08-30T01:40:19;11.63;;;5.27;;
67272;SDS011;54190;49.770;9.250;2022-08-30T01:42:46;9.00;;;5.17;;
67272;SDS011;54190;49.770;9.250;2022-08-30T01:45:11;7.93;;;5.27;;
67272;SDS011;54190;49.770;9.250;2022-08-30T01:47:38;9.43;;;5.13;;
67272;SDS011;54190;49.770;9.250;2022-08-30T01:50:05;9.30;;;4.90;;
67272;SDS011;54190;49.770;9.250;2022-08-30T01:52:31;6.90;;;5.00;;
67272;SDS011;54190;49.770;9.250;2022-08-30T01:54:58;9.13;;;5.30;;
67272;SDS011;54190;49.770;9.250;2022-08-30T01:57:23;8.40;;;5.13;;
67272;SDS011;54190;49.770;9.250;2022-08-30T01:59:51;9.90;;;5.47;;
67272;SDS011;54190;49.770;9.250;2022-08-30T02:02:19;8.10;;;5.10;;
67272;SDS011;54190;49.770;9.250;2022-08-30T02:04:47;12.80;;;5.57;;
67272;SDS011;54190;49.770;9.250;2022-08-30T02:07:13;10.00;;;5.37;;
67272;SDS011;54190;49.770;9.250;2022-08-30T02:09:40;8.53;;;5.60;;
67272;SDS011;54190;49.770;9.250;2022-08-30T02:12:06;10.10;;;5.20;;
67272;SDS011;54190;49.770;9.250;2022-08-30T02:14:33;8.30;;;4.70;;
67272;SDS011;54190;49.770;9.250;2022-08-30T02:17:01;11.30;;;5.47;;
67272;SDS011;54190;49.770;9.250;2022-08-30T02:19:27;9.50;;;5.27;;
67272;SDS011;54190;49.770;9.250;2022-08-30T02:21:53;8.93;;;5.27;;
67272;SDS011;54190;49.770;9.250;2022-08-30T02:24:19;8.60;;;4.70;;
67272;SDS011;54190;49.770;9.250;2022-08-30T02:26:45;11.07;;;5.30;;
67272;SDS011;54190;49.770;9.250;2022-08-30T02:29:10;11.37;;;4.67;;
67272;SDS011;54190;49.770;9.250;2022-08-30T02:31:36;8.90;;;4.90;;
67272;SDS011;54190;49.770;9.250;2022-08-30T02:34:02;10.53;;;4.77;;
67272;SDS011;54190;49.770;9.250;2022-08-30T02:36:28;7.20;;;4.93;;
67272;SDS011;54190;49.770;9.250;2022-08-30T02:38:54;8.10;;;4.93;;
67272;SDS011;54190;49.770;9.250;2022-08-30T02:41:20;5.83;;;4.73;;
67272;SDS011;54190;49.770;9.250;2022-08-30T02:43:47;15.90;;;5.00;;
67272;SDS011;54190;49.770;9.250;2022-08-30T02:46:14;7.93;;;4.63;;
67272;SDS011;54190;49.770;9.250;2022-08-30T02:48:40;9.60;;;4.70;;
67272;SDS011;54190;49.770;9.250;2022-08-30T02:51:07;10.13;;;5.00;;
67272;SDS011;54190;49.770;9.250;2022-08-30T02:53:34;9.37;;;5.00;;
67272;SDS011;54190;49.770;9.250;2022-08-30T02:56:01;9.50;;;5.00;;
67272;SDS011;54190;49.770;9.250;2022-08-30T02:58:26;8.10;;;4.53;;
67272;SDS011;54190;49.770;9.250;2022-08-30T03:00:52;8.53;;;5.67;;
67272;SDS011;54190;49.770;9.250;2022-08-30T03:03:18;7.77;;;4.93;;
67272;SDS011;54190;49.770;9.250;2022-08-30T03:05:44;10.30;;;5.20;;
67272;SDS011;54190;49.770;9.250;2022-08-30T03:08:10;11.47;;;5.57;;
67272;SDS011;54190;49.770;9.250;2022-08-30T03:10:35;6.73;;;4.77;;
67272;SDS011;54190;49.770;9.250;2022-08-30T03:13:02;8.87;;;5.37;;
67272;SDS011;54190;49.770;9.250;2022-08-30T03:15:31;8.53;;;5.13;;
67272;SDS011;54190;49.770;9.250;2022-08-30T03:17:57;7.23;;;5.10;;
67272;SDS011;54190;49.770;9.250;2022-08-30T03:20:23;8.60;;;4.57;;
67272;SDS011;54190;49.770;9.250;2022-08-30T03:22:50;9.70;;;5.13;;
67272;SDS011;54190;49.770;9.250;2022-08-30T03:25:16;8.20;;;5.40;;
67272;SDS011;54190;49.770;9.250;2022-08-30T03:27:42;9.63;;;4.90;;
67272;SDS011;54190;49.770;9.250;2022-08-30T03:30:08;7.90;;;4.90;;
67272;SDS011;54190;49.770;9.250;2022-08-30T03:32:34;14.23;;;5.37;;
67272;SDS011;54190;49.770;9.250;2022-08-30T03:35:00;10.40;;;4.70;;
67272;SDS011;54190;49.770;9.250;2022-08-30T03:37:25;9.80;;;5.23;;
67272;SDS011;54190;49.770;9.250;2022-08-30T03:39:52;9.17;;;5.17;;
67272;SDS011;54190;49.770;9.250;2022-08-30T03:42:19;9.97;;;5.03;;
67272;SDS011;54190;49.770;9.250;2022-08-30T03:44:45;11.43;;;5.33;;
67272;SDS011;54190;49.770;9.250;2022-08-30T03:47:11;15.10;;;5.30;;
67272;SDS011;54190;49.770;9.250;2022-08-30T03:49:36;10.93;;;4.77;;
67272;SDS011;54190;49.770;9.250;2022-08-30T03:52:02;10.50;;;5.20;;
67272;SDS011;54190;49.770;9.250;2022-08-30T03:54:29;8.97;;;5.10;;
67272;SDS011;54190;49.770;9.250;2022-08-30T03:56:54;9.07;;;5.47;;
67272;SDS011;54190;49.770;9.250;2022-08-30T03:59:20;10.03;;;5.27;;
67272;SDS011;54190;49.770;9.250;2022-08-30T04:01:46;11.33;;;5.60;;
67272;SDS011;54190;49.770;9.250;2022-08-30T04:04:13;11.47;;;6.13;;
67272;SDS011;54190;49.770;9.250;2022-08-30T04:06:39;13.83;;;5.43;;
67272;SDS011;54190;49.770;9.250;2022-08-30T04:09:05;7.70;;;4.80;;
67272;SDS011;54190;49.770;9.250;2022-08-30T04:11:32;8.10;;;5.07;;
67272;SDS011;54190;49.770;9.250;2022-08-30T04:13:58;15.30;;;5.00;;
67272;SDS011;54190;49.770;9.250;2022-08-30T04:16:24;7.30;;;4.70;;
67272;SDS011;54190;49.770;9.250;2022-08-30T04:18:50;8.17;;;5.17;;
67272;SDS011;54190;49.770;9.250;2022-08-30T04:21:16;8.60;;;5.27;;
67272;SDS011;54190;49.770;9.250;2022-08-30T04:23:42;8.90;;;5.27;;
67272;SDS011;54190;49.770;9.250;2022-08-30T04:26:08;10.87;;;5.40;;
67272;SDS011;54190;49.770;9.250;2022-08-30T04:28:34;8.33;;;5.07;;
67272;SDS011;54190;49.770;9.250;2022-08-30T04:31:06;7.00;;;5.00;;
67272;SDS011;54190;49.770;9.250;2022-08-30T04:33:36;8.80;;;4.73;;
67272;SDS011;54190;49.770;9.250;2022-08-30T04:36:03;9.07;;;4.67;;
67272;SDS011;54190;49.770;9.250;2022-08-30T04:38:31;11.73;;;5.20;;
67272;SDS011;54190;49.770;9.250;2022-08-30T04:40:57;9.17;;;4.90;;
67272;SDS011;54190;49.770;9.250;2022-08-30T04:43:23;8.17;;;4.83;;
67272;SDS011;54190;49.770;9.250;2022-08-30T04:45:51;10.23;;;5.70;;
67272;SDS011;54190;49.770;9.250;2022-08-30T04:48:18;11.97;;;6.07;;
67272;SDS011;54190;49.770;9.250;2022-08-30T04:50:46;8.60;;;5.10;;
67272;SDS011;54190;49.770;9.250;2022-08-30T04:53:12;12.10;;;5.97;;
67272;SDS011;54190;49.770;9.250;2022-08-30T04:55:39;12.63;;;5.80;;
67272;SDS011;54190;49.770;9.250;2022-08-30T04:58:05;9.40;;;5.47;;
67272;SDS011;54190;49.770;9.250;2022-08-30T05:00:31;12.30;;;5.23;;
67272;SDS011;54190;49.770;9.250;2022-08-30T05:02:57;11.70;;;4.60;;
67272;SDS011;54190;49.770;9.250;2022-08-30T05:05:23;7.73;;;4.90;;
67272;SDS011;54190;49.770;9.250;2022-08-30T05:08:05;9.53;;;4.87;;
67272;SDS011;54190;49.770;9.250;2022-08-30T05:10:32;8.47;;;5.23;;
67272;SDS011;54190;49.770;9.250;2022-08-30T05:12:58;8.77;;;5.10;;
67272;SDS011;54190;49.770;9.250;2022-08-30T05:15:24;10.97;;;5.07;;
67272;SDS011;54190;49.770;9.250;2022-08-30T05:17:50;8.50;;;5.17;;
67272;SDS011;54190;49.770;9.250;2022-08-30T05:20:16;10.80;;;5.90;;
67272;SDS011;54190;49.770;9.250;2022-08-30T05:22:42;11.03;;;5.30;;
67272;SDS011;54190;49.770;9.250;2022-08-30T05:25:17;9.70;;;5.60;;
67272;SDS011;54190;49.770;9.250;2022-08-30T05:27:48;9.80;;;5.40;;
67272;SDS011;54190;49.770;9.250;2022-08-30T05:30:15;10.03;;;5.43;;
67272;SDS011;54190;49.770;9.250;2022-08-30T05:32:41;10.20;;;5.80;;
67272;SDS011;54190;49.770;9.250;2022-08-30T05:35:07;10.27;;;5.00;;
67272;SDS011;54190;49.770;9.250;2022-08-30T05:37:34;10.37;;;5.50;;
67272;SDS011;54190;49.770;9.250;2022-08-30T05:40:01;9.30;;;5.50;;
67272;SDS011;54190;49.770;9.250;2022-08-30T05:42:28;10.60;;;6.50;;
67272;SDS011;54190;49.770;9.250;2022-08-30T05:44:53;11.60;;;5.80;;
67272;SDS011;54190;49.770;9.250;2022-08-30T05:47:19;9.43;;;5.80;;
67272;SDS011;54190;49.770;9.250;2022-08-30T05:49:46;9.70;;;6.00;;
67272;SDS011;54190;49.770;9.250;2022-08-30T05:52:12;12.97;;;6.20;;
67272;SDS011;54190;49.770;9.250;2022-08-30T05:54:40;11.23;;;5.60;;
67272;SDS011;54190;49.770;9.250;2022-08-30T05:57:06;10.80;;;5.77;;
67272;SDS011;54190;49.770;9.250;2022-08-30T05:59:32;13.83;;;5.63;;
67272;SDS011;54190;49.770;9.250;2022-08-30T06:01:58;10.60;;;6.20;;
67272;SDS011;54190;49.770;9.250;2022-08-30T06:04:24;8.33;;;5.40;;
67272;SDS011;54190;49.770;9.250;2022-08-30T06:06:50;10.60;;;6.57;;
67272;SDS011;54190;49.770;9.250;2022-08-30T06:09:15;12.20;;;6.07;;
67272;SDS011;54190;49.770;9.250;2022-08-30T06:11:42;10.70;;;5.50;;
67272;SDS011;54190;49.770;9.250;2022-08-30T06:14:08;7.67;;;5.10;;
67272;SDS011;54190;49.770;9.250;2022-08-30T06:16:36;9.10;;;5.20;;
67272;SDS011;54190;49.770;9.250;2022-08-30T06:19:03;8.70;;;4.63;;
67272;SDS011;54190;49.770;9.250;2022-08-30T06:21:32;11.50;;;5.30;;
67272;SDS011;54190;49.770;9.250;2022-08-30T06:24:00;9.40;;;5.20;;
67272;SDS011;54190;49.770;9.250;2022-08-30T06:26:27;8.40;;;4.70;;
67272;SDS011;54190;49.770;9.250;2022-08-30T06:28:53;12.30;;;5.93;;
67272;SDS011;54190;49.770;9.250;2022-08-30T06:31:21;7.77;;;4.90;;
67272;SDS011;54190;49.770;9.250;2022-08-30T06:33:48;7.27;;;4.50;;
67272;SDS011;54190;49.770;9.250;2022-08-30T06:36:15;7.90;;;4.93;;
67272;SDS011;54190;49.770;9.250;2022-08-30T06:38:45;9.30;;;4.93;;
67272;SDS011;54190;49.770;9.250;2022-08-30T06:41:14;15.10;;;5.07;;
67272;SDS011;54190;49.770;9.250;2022-08-30T06:43:43;8.97;;;4.87;;
67272;SDS011;54190;49.770;9.250;2022-08-30T06:46:13;10.83;;;5.20;;
67272;SDS011;54190;49.770;9.250;2022-08-30T06:48:40;15.93;;;4.57;;
67272;SDS011;54190;49.770;9.250;2022-08-30T06:51:06;8.30;;;4.53;;
67272;SDS011;54190;49.770;9.250;2022-08-30T06:53:32;10.33;;;4.70;;
67272;SDS011;54190;49.770;9.250;2022-08-30T06:56:03;10.13;;;4.77;;
67272;SDS011;54190;49.770;9.250;2022-08-30T06:58:34;12.63;;;4.20;;
67272;SDS011;54190;49.770;9.250;2022-08-30T07:01:03;11.73;;;5.00;;
67272;SDS011;54190;49.770;9.250;2022-08-30T07:03:30;12.77;;;5.37;;
67272;SDS011;54190;49.770;9.250;2022-08-30T07:05:56;10.50;;;5.10;;
67272;SDS011;54190;49.770;9.250;2022-08-30T07:08:22;8.00;;;4.70;;
67272;SDS011;54190;49.770;9.250;2022-08-30T07:10:49;13.73;;;4.30;;
67272;SDS011;54190;49.770;9.250;2022-08-30T07:13:15;9.80;;;4.20;;
67272;SDS011;54190;49.770;9.250;2022-08-30T07:15:42;8.17;;;3.80;;
67272;SDS011;54190;49.770;9.250;2022-08-30T07:18:09;7.67;;;3.90;;
67272;SDS011;54190;49.770;9.250;2022-08-30T07:20:54;8.20;;;3.70;;
67272;SDS011;54190;49.770;9.250;2022-08-30T07:23:21;5.20;;;3.40;;
67272;SDS011;54190;49.770;9.250;2022-08-30T07:25:47;11.23;;;4.10;;
67272;SDS011;54190;49.770;9.250;2022-08-30T07:28:12;7.67;;;3.83;;
67272;SDS011;54190;49.770;9.250;2022-08-30T07:30:39;5.57;;;3.73;;
67272;SDS011;54190;49.770;9.250;2022-08-30T07:33:05;7.47;;;3.63;;
67272;SDS011;54190;49.770;9.250;2022-08-30T07:35:31;5.97;;;3.30;;
67272;SDS011;54190;49.770;9.250;2022-08-30T07:37:57;10.50;;;4.27;;
67272;SDS011;54190;49.770;9.250;2022-08-30T07:40:23;8.13;;;4.13;;
67272;SDS011;54190;49.770;9.250;2022-08-30T07:42:49;5.97;;;3.30;;
67272;SDS011;54190;49.770;9.250;2022-08-30T07:45:15;5.97;;;4.10;;
67272;SDS011;54190;49.770;9.250;2022-08-30T07:47:41;9.30;;;3.30;;
67272;SDS011;54190;49.770;9.250;2022-08-30T07:50:07;8.77;;;3.50;;
67272;SDS011;54190;49.770;9.250;2022-08-30T07:52:33;9.30;;;3.63;;
67272;SDS011;54190;49.770;9.250;2022-08-30T07:54:59;11.57;;;4.10;;
67272;SDS011;54190;49.770;9.250;2022-08-30T07:57:25;8.77;;;3.67;;
67272;SDS011;54190;49.770;9.250;2022-08-30T07:59:51;7.17;;;3.70;;
67272;SDS011;54190;49.770;9.250;2022-08-30T08:02:17;8.63;;;4.13;;
67272;SDS011;54190;49.770;9.250;2022-08-30T08:04:44;8.60;;;3.70;;
67272;SDS011;54190;49.770;9.250;2022-08-30T08:07:11;7.20;;;3.80;;
67272;SDS011;54190;49.770;9.250;2022-08-30T08:09:37;5.80;;;3.60;;
67272;SDS011;54190;49.770;9.250;2022-08-30T08:12:04;6.20;;;3.63;;
67272;SDS011;54190;49.770;9.250;2022-08-30T08:14:31;10.03;;;4.33;;
67272;SDS011;54190;49.770;9.250;2022-08-30T08:16:58;8.47;;;3.80;;
67272;SDS011;54190;49.770;9.250;2022-08-30T08:19:24;7.13;;;3.83;;
67272;SDS011;54190;49.770;9.250;2022-08-30T08:21:50;7.27;;;4.03;;
67272;SDS011;54190;49.770;9.250;2022-08-30T08:24:21;7.83;;;4.03;;
67272;SDS011;54190;49.770;9.250;2022-08-30T08:26:47;10.20;;;3.93;;
67272;SDS011;54190;49.770;9.250;2022-08-30T08:29:13;5.67;;;3.40;;
67272;SDS011;54190;49.770;9.250;2022-08-30T08:31:40;5.77;;;3.60;;
67272;SDS011;54190;49.770;9.250;2022-08-30T08:34:06;6.67;;;3.90;;
67272;SDS011;54190;49.770;9.250;2022-08-30T08:36:33;9.43;;;4.10;;
67272;SDS011;54190;49.770;9.250;2022-08-30T08:39:00;6.70;;;3.60;;
67272;SDS011;54190;49.770;9.250;2022-08-30T08:44:18;6.40;;;4.17;;
67272;SDS011;54190;49.770;9.250;2022-08-30T08:46:54;5.90;;;3.87;;
67272;SDS011;54190;49.770;9.250;2022-08-30T08:49:55;9.80;;;4.50;;
67272;SDS011;54190;49.770;9.250;2022-08-30T08:52:26;8.03;;;3.90;;
67272;SDS011;54190;49.770;9.250;2022-08-30T08:55:14;6.50;;;3.90;;
67272;SDS011;54190;49.770;9.250;2022-08-30T08:57:43;6.07;;;4.17;;
67272;SDS011;54190;49.770;9.250;2022-08-30T09:00:10;7.60;;;3.80;;
67272;SDS011;54190;49.770;9.250;2022-08-30T09:02:39;10.60;;;4.10;;
67272;SDS011;54190;49.770;9.250;2022-08-30T09:05:12;7.50;;;3.90;;
67272;SDS011;54190;49.770;9.250;2022-08-30T09:07:44;8.97;;;3.77;;
67272;SDS011;54190;49.770;9.250;2022-08-30T09:10:18;10.70;;;4.60;;
67272;SDS011;54190;49.770;9.250;2022-08-30T09:12:45;5.30;;;3.43;;
67272;SDS011;54190;49.770;9.250;2022-08-30T09:15:16;5.77;;;3.93;;
67272;SDS011;54190;49.770;9.250;2022-08-30T09:17:50;6.87;;;3.80;;
67272;SDS011;54190;49.770;9.250;2022-08-30T09:22:58;6.00;;;4.10;;
67272;SDS011;54190;49.770;9.250;2022-08-30T09:28:24;6.97;;;3.90;;
67272;SDS011;54190;49.770;9.250;2022-08-30T09:31:44;8.13;;;3.90;;
67272;SDS011;54190;49.770;9.250;2022-08-30T09:34:01;8.07;;;4.10;;
67272;SDS011;54190;49.770;9.250;2022-08-30T09:36:37;6.43;;;3.93;;
67272;SDS011;54190;49.770;9.250;2022-08-30T09:44:49;8.53;;;3.47;;
67272;SDS011;54190;49.770;9.250;2022-08-30T09:50:03;7.83;;;3.53;;
67272;SDS011;54190;49.770;9.250;2022-08-30T09:55:41;6.00;;;3.60;;
67272;SDS011;54190;49.770;9.250;2022-08-30T09:58:44;6.40;;;3.30;;
67272;SDS011;54190;49.770;9.250;2022-08-30T10:01:36;5.60;;;3.73;;
67272;SDS011;54190;49.770;9.250;2022-08-30T10:04:38;8.10;;;3.47;;
67272;SDS011;54190;49.770;9.250;2022-08-30T10:09:51;6.53;;;3.10;;
67272;SDS011;54190;49.770;9.250;2022-08-30T10:14:59;7.57;;;3.70;;
67272;SDS011;54190;49.770;9.250;2022-08-30T10:23:12;5.30;;;3.40;;
67272;SDS011;54190;49.770;9.250;2022-08-30T10:25:58;6.10;;;3.13;;
67272;SDS011;54190;49.770;9.250;2022-08-30T10:28:41;7.50;;;3.23;;
67272;SDS011;54190;49.770;9.250;2022-08-30T10:31:35;6.30;;;3.00;;
67272;SDS011;54190;49.770;9.250;2022-08-30T10:34:09;6.03;;;3.37;;
67272;SDS011;54190;49.770;9.250;2022-08-30T10:36:42;4.60;;;2.80;;
67272;SDS011;54190;49.770;9.250;2022-08-30T10:39:12;5.53;;;3.30;;
67272;SDS011;54190;49.770;9.250;2022-08-30T10:41:49;4.47;;;2.83;;
67272;SDS011;54190;49.770;9.250;2022-08-30T10:44:24;3.93;;;2.90;;
67272;SDS011;54190;49.770;9.250;2022-08-30T10:49:43;3.87;;;3.20;;
67272;SDS011;54190;49.770;9.250;2022-08-30T10:54:51;5.50;;;3.27;;
67272;SDS011;54190;49.770;9.250;2022-08-30T10:57:26;3.90;;;3.30;;
67272;SDS011;54190;49.770;9.250;2022-08-30T10:59:56;4.13;;;3.27;;
67272;SDS011;54190;49.770;9.250;2022-08-30T11:05:16;4.90;;;3.27;;
67272;SDS011;54190;49.770;9.250;2022-08-30T11:08:15;5.60;;;3.67;;
67272;SDS011;54190;49.770;9.250;2022-08-30T11:14:04;8.53;;;3.83;;
67272;SDS011;54190;49.770;9.250;2022-08-30T11:16:39;5.30;;;3.30;;
67272;SDS011;54190;49.770;9.250;2022-08-30T11:19:15;6.73;;;3.80;;
67272;SDS011;54190;49.770;9.250;2022-08-30T11:21:48;4.90;;;3.43;;
67272;SDS011;54190;49.770;9.250;2022-08-30T11:24:15;6.00;;;3.97;;
67272;SDS011;54190;49.770;9.250;2022-08-30T11:32:23;4.90;;;3.90;;
67272;SDS011;54190;49.770;9.250;2022-08-30T11:35:09;3.80;;;3.40;;
67272;SDS011;54190;49.770;9.250;2022-08-30T11:42:45;3.80;;;3.33;;
67272;SDS011;54190;49.770;9.250;2022-08-30T11:52:58;4.53;;;3.43;;
67272;SDS011;54190;49.770;9.250;2022-08-30T12:03:41;4.53;;;3.00;;
67272;SDS011;54190;49.770;9.250;2022-08-30T12:06:08;4.83;;;3.33;;
67272;SDS011;54190;49.770;9.250;2022-08-30T12:08:46;4.83;;;3.50;;
67272;SDS011;54190;49.770;9.250;2022-08-30T12:23:53;3.60;;;3.20;;
67272;SDS011;54190;49.770;9.250;2022-08-30T12:26:49;5.20;;;3.33;;
67272;SDS011;54190;49.770;9.250;2022-08-30T12:31:47;3.33;;;3.03;;
67272;SDS011;54190;49.770;9.250;2022-08-30T12:35:05;6.13;;;3.53;;
67272;SDS011;54190;49.770;9.250;2022-08-30T12:39:44;4.50;;;3.27;;
67272;SDS011;54190;49.770;9.250;2022-08-30T12:42:23;4.97;;;3.50;;
67272;SDS011;54190;49.770;9.250;2022-08-30T12:44:52;6.53;;;3.63;;
67272;SDS011;54190;49.770;9.250;2022-08-30T12:50:06;4.30;;;3.60;;
67272;SDS011;54190;49.770;9.250;2022-08-30T12:52:34;5.10;;;3.00;;
67272;SDS011;54190;49.770;9.250;2022-08-30T12:55:14;4.87;;;3.57;;
67272;SDS011;54190;49.770;9.250;2022-08-30T12:57:43;4.03;;;3.40;;
67272;SDS011;54190;49.770;9.250;2022-08-30T13:00:33;4.17;;;3.73;;
67272;SDS011;54190;49.770;9.250;2022-08-30T13:03:28;4.70;;;3.20;;
67272;SDS011;54190;49.770;9.250;2022-08-30T13:05:57;5.00;;;3.30;;
67272;SDS011;54190;49.770;9.250;2022-08-30T13:10:56;4.50;;;3.20;;
67272;SDS011;54190;49.770;9.250;2022-08-30T13:13:41;3.90;;;3.30;;
67272;SDS011;54190;49.770;9.250;2022-08-30T13:16:57;3.30;;;3.00;;
67272;SDS011;54190;49.770;9.250;2022-08-30T13:22:22;4.37;;;3.13;;
67272;SDS011;54190;49.770;9.250;2022-08-30T13:24:51;4.73;;;3.33;;
67272;SDS011;54190;49.770;9.250;2022-08-30T13:27:17;3.83;;;3.10;;
67272;SDS011;54190;49.770;9.250;2022-08-30T13:29:44;3.90;;;3.10;;
67272;SDS011;54190;49.770;9.250;2022-08-30T13:32:10;3.80;;;3.10;;
67272;SDS011;54190;49.770;9.250;2022-08-30T13:34:38;4.70;;;3.30;;
67272;SDS011;54190;49.770;9.250;2022-08-30T13:37:04;4.80;;;3.30;;
67272;SDS011;54190;49.770;9.250;2022-08-30T13:39:31;3.83;;;3.33;;
67272;SDS011;54190;49.770;9.250;2022-08-30T13:41:57;4.40;;;3.43;;
67272;SDS011;54190;49.770;9.250;2022-08-30T13:44:23;6.00;;;3.10;;
67272;SDS011;54190;49.770;9.250;2022-08-30T13:46:50;5.83;;;3.07;;
67272;SDS011;54190;49.770;9.250;2022-08-30T13:49:28;3.13;;;2.83;;
67272;SDS011;54190;49.770;9.250;2022-08-30T13:51:55;5.30;;;3.27;;
67272;SDS011;54190;49.770;9.250;2022-08-30T13:54:22;3.60;;;2.70;;
67272;SDS011;54190;49.770;9.250;2022-08-30T13:56:49;3.50;;;2.93;;
67272;SDS011;54190;49.770;9.250;2022-08-30T13:59:16;2.87;;;2.63;;
67272;SDS011;54190;49.770;9.250;2022-08-30T14:01:42;6.63;;;2.90;;
67272;SDS011;54190;49.770;9.250;2022-08-30T14:04:08;3.43;;;3.03;;
67272;SDS011;54190;49.770;9.250;2022-08-30T14:06:34;3.67;;;3.13;;
67272;SDS011;54190;49.770;9.250;2022-08-30T14:09:00;3.83;;;3.40;;
67272;SDS011;54190;49.770;9.250;2022-08-30T14:11:28;4.10;;;3.13;;
67272;SDS011;54190;49.770;9.250;2022-08-30T14:13:54;3.30;;;3.00;;
67272;SDS011;54190;49.770;9.250;2022-08-30T14:16:20;9.13;;;3.60;;
67272;SDS011;54190;49.770;9.250;2022-08-30T14:18:45;3.67;;;3.00;;
67272;SDS011;54190;49.770;9.250;2022-08-30T14:21:11;3.53;;;3.03;;
67272;SDS011;54190;49.770;9.250;2022-08-30T14:23:37;3.50;;;3.00;;
67272;SDS011;54190;49.770;9.250;2022-08-30T14:26:02;4.63;;;3.40;;
67272;SDS011;54190;49.770;9.250;2022-08-30T14:28:35;4.67;;;3.00;;
67272;SDS011;54190;49.770;9.250;2022-08-30T14:31:01;5.67;;;3.50;;
67272;SDS011;54190;49.770;9.250;2022-08-30T14:33:27;5.53;;;3.00;;
67272;SDS011;54190;49.770;9.250;2022-08-30T14:35:53;3.70;;;3.00;;
67272;SDS011;54190;49.770;9.250;2022-08-30T14:38:18;5.30;;;3.40;;
67272;SDS011;54190;49.770;9.250;2022-08-30T14:40:44;4.77;;;2.73;;
67272;SDS011;54190;49.770;9.250;2022-08-30T14:43:10;3.80;;;3.00;;
67272;SDS011;54190;49.770;9.250;2022-08-30T14:45:38;3.33;;;3.03;;
67272;SDS011;54190;49.770;9.250;2022-08-30T14:48:04;4.33;;;3.07;;
67272;SDS011;54190;49.770;9.250;2022-08-30T14:50:36;4.50;;;3.37;;
67272;SDS011;54190;49.770;9.250;2022-08-30T14:53:03;6.10;;;3.10;;
67272;SDS011;54190;49.770;9.250;2022-08-30T14:55:29;3.80;;;3.10;;
67272;SDS011;54190;49.770;9.250;2022-08-30T14:57:56;4.63;;;3.10;;
67272;SDS011;54190;49.770;9.250;2022-08-30T15:00:22;3.13;;;2.83;;
67272;SDS011;54190;49.770;9.250;2022-08-30T15:02:48;6.03;;;3.30;;
67272;SDS011;54190;49.770;9.250;2022-08-30T15:05:15;4.13;;;2.80;;
67272;SDS011;54190;49.770;9.250;2022-08-30T15:07:41;3.10;;;2.80;;
67272;SDS011;54190;49.770;9.250;2022-08-30T15:10:07;3.93;;;3.30;;
67272;SDS011;54190;49.770;9.250;2022-08-30T15:12:34;3.43;;;3.10;;
67272;SDS011;54190;49.770;9.250;2022-08-30T15:15:00;4.63;;;3.10;;
67272;SDS011;54190;49.770;9.250;2022-08-30T15:17:26;3.50;;;3.03;;
67272;SDS011;54190;49.770;9.250;2022-08-30T15:19:52;4.43;;;3.03;;
67272;SDS011;54190;49.770;9.250;2022-08-30T15:22:18;3.80;;;2.90;;
67272;SDS011;54190;49.770;9.250;2022-08-30T15:24:44;4.40;;;2.90;;
67272;SDS011;54190;49.770;9.250;2022-08-30T15:27:09;7.90;;;3.10;;
67272;SDS011;54190;49.770;9.250;2022-08-30T15:29:35;3.17;;;2.80;;
67272;SDS011;54190;49.770;9.250;2022-08-30T15:32:01;4.87;;;3.13;;
67272;SDS011;54190;49.770;9.250;2022-08-30T15:34:28;3.67;;;3.03;;
67272;SDS011;54190;49.770;9.250;2022-08-30T15:36:54;7.10;;;3.20;;
67272;SDS011;54190;49.770;9.250;2022-08-30T15:39:21;4.03;;;2.97;;
67272;SDS011;54190;49.770;9.250;2022-08-30T15:41:47;3.90;;;3.03;;
67272;SDS011;54190;49.770;9.250;2022-08-30T15:44:15;4.03;;;3.07;;
67272;SDS011;54190;49.770;9.250;2022-08-30T15:46:41;4.37;;;3.10;;
67272;SDS011;54190;49.770;9.250;2022-08-30T15:51:37;3.23;;;2.67;;
67272;SDS011;54190;49.770;9.250;2022-08-30T15:54:03;3.43;;;3.13;;
67272;SDS011;54190;49.770;9.250;2022-08-30T15:56:30;3.00;;;2.70;;
67272;SDS011;54190;49.770;9.250;2022-08-30T15:58:56;4.80;;;3.70;;
67272;SDS011;54190;49.770;9.250;2022-08-30T16:01:22;5.23;;;3.00;;
67272;SDS011;54190;49.770;9.250;2022-08-30T16:03:48;7.37;;;3.40;;
67272;SDS011;54190;49.770;9.250;2022-08-30T16:06:22;5.70;;;3.10;;
67272;SDS011;54190;49.770;9.250;2022-08-30T16:08:51;6.00;;;3.07;;
67272;SDS011;54190;49.770;9.250;2022-08-30T16:11:18;4.33;;;2.80;;
67272;SDS011;54190;49.770;9.250;2022-08-30T16:13:47;6.60;;;2.90;;
67272;SDS011;54190;49.770;9.250;2022-08-30T16:16:14;3.90;;;2.70;;
67272;SDS011;54190;49.770;9.250;2022-08-30T16:18:40;3.90;;;2.93;;
67272;SDS011;54190;49.770;9.250;2022-08-30T16:21:08;2.90;;;2.67;;
67272;SDS011;54190;49.770;9.250;2022-08-30T16:23:35;7.13;;;2.87;;
67272;SDS011;54190;49.770;9.250;2022-08-30T16:26:02;5.13;;;3.20;;
67272;SDS011;54190;49.770;9.250;2022-08-30T16:28:29;3.77;;;3.03;;
67272;SDS011;54190;49.770;9.250;2022-08-30T16:30:55;6.73;;;3.50;;
67272;SDS011;54190;49.770;9.250;2022-08-30T16:33:21;5.60;;;2.67;;